Rogersville, Alabama
Current Conditions -  °F | °C
As of 10:53 AM on Thursday 23 Oct 2014 (Local Time) from KMSL Reporting Station
Clear Clear  
Wind Chill: 58°   Ceiling: Unl
Heat Index: 58°   Visibility: 10mi
Dew Point: 41°   Wind: 7mph
Humidity: 53%   Direction: 70°ENE
Pressure: 30.21"   Gusts: NA
Location:  34.83°N, 87.29°W
Report Text: KMSL 231553Z AUTO 07006KT 10SM CLR 14/05 A3021 RMK AO2 SLP227 T01440050 $
Loading
Personal Weather Stations






























Interactive Weather Map
Tropical Storm Tracking
New forecast layout! Learn more

10-Day Weather Forecast

Advertisements
Track Severe Weather on mobile